Terminal Aerodrome Forecast
Issued by NWS

Home | Current Version | Previous Version | Text Only | Print | Product List | Glossary On
Versions: 1 2 3 4 5 6 7 8 9 10 11 12 13
000
FTUS42 TJSJ 030500
TAFJPS
TAF
TJPS 030520Z 0306/0406 06004KT P6SM FEW025 SCT050
     FM031330 15010G15KT P6SM FEW030 FEW060
     FM032230 06005KT P6SM FEW030=

USA.gov is the U.S. government's official web portal to all federal, state and local government web resources and services.